Etusivu
METAR-TAF:

METAR-TAF

Lentoasemat :

Ørsta-Volda, Norja

Ørsta-Voldan lentoasema

Leveyspiiri: 62-11N, Pituuspiiri: 006-04E, korkeus merenpinnasta: 7 m

Tämänhetkinen sää

Tämä raportti tehtiin 1 tunti ja 8 minuuttia sitten, kello 16.50 UTC
Tuuli 1 kn eri suunnista
Lämpötila 1°C
Kosteus 93%
Ilmanpaine 1008 hPa
Näkyvyys 10 km tai enemmän
Muutamia pilviä 200 ft:n korkeudessa
Hajanaisia pilviä 600 ft:n korkeudessa
Hajonneita pilviä 1900 ft:n korkeudessa
heikkoja vesikuuroja

METAR: ENOV 191650Z VRB01KT 9999 -SHRA FEW002 SCT006 BKN019 01/00 Q1008 RMK WIND 2175FT 26012KT

Aika: 18:58 (17:58 UTC)


TAF: puuttuu

Säähavainnot ja -ennusteet yli 4000 lentoasemalta (METAR- ja TAF-raportit).

Käytössä olevat sääasemat on merkitty karttaan keltaisilla ja punaisilla pisteillä.

Aseta hiiri pisteen päälle nähdäksesi sääaseman nimen.

Klikkaa sitten nähdäksesi säähavainnot ja -ennusteet.

Kartan vaihtaminen: klikkaa mustalla rastilla varustettuja vihreitä pisteitä, niin voit zoomata sisään; viivalla varustettua vihreää pistettä, niin voit zoomata ulos tai vihreitä nuolia, niin pääset viereisille kartoille.


METAR-TAF: